sensor_id;sensor_type;location;lat;lon;timestamp;P1;durP1;ratioP1;P2;durP2;ratioP2
39518;SDS011;25200;53.394;10.414;2024-03-02T00:02:03;29.38;;;15.38;;
39518;SDS011;25200;53.394;10.414;2024-03-02T00:04:33;32.92;;;16.63;;
39518;SDS011;25200;53.394;10.414;2024-03-02T00:06:59;35.42;;;17.52;;
39518;SDS011;25200;53.394;10.414;2024-03-02T00:09:24;35.85;;;15.77;;
39518;SDS011;25200;53.394;10.414;2024-03-02T00:11:50;29.92;;;14.63;;
39518;SDS011;25200;53.394;10.414;2024-03-02T00:14:16;31.02;;;15.32;;
39518;SDS011;25200;53.394;10.414;2024-03-02T00:16:42;31.05;;;15.82;;
39518;SDS011;25200;53.394;10.414;2024-03-02T00:19:08;34.72;;;16.85;;
39518;SDS011;25200;53.394;10.414;2024-03-02T00:21:34;33.58;;;15.60;;
39518;SDS011;25200;53.394;10.414;2024-03-02T00:24:00;33.70;;;16.40;;
39518;SDS011;25200;53.394;10.414;2024-03-02T00:26:32;32.35;;;15.77;;
39518;SDS011;25200;53.394;10.414;2024-03-02T00:28:57;35.42;;;16.60;;
39518;SDS011;25200;53.394;10.414;2024-03-02T00:31:25;34.78;;;16.48;;
39518;SDS011;25200;53.394;10.414;2024-03-02T00:33:51;35.20;;;16.83;;
39518;SDS011;25200;53.394;10.414;2024-03-02T00:36:21;34.08;;;16.50;;
39518;SDS011;25200;53.394;10.414;2024-03-02T00:38:50;31.08;;;15.57;;
39518;SDS011;25200;53.394;10.414;2024-03-02T00:41:31;34.42;;;16.10;;
39518;SDS011;25200;53.394;10.414;2024-03-02T00:43:58;36.05;;;17.42;;
39518;SDS011;25200;53.394;10.414;2024-03-02T00:46:35;35.50;;;17.60;;
39518;SDS011;25200;53.394;10.414;2024-03-02T00:49:03;32.67;;;16.40;;
39518;SDS011;25200;53.394;10.414;2024-03-02T00:51:31;33.63;;;16.42;;
39518;SDS011;25200;53.394;10.414;2024-03-02T00:54:01;37.63;;;17.90;;
39518;SDS011;25200;53.394;10.414;2024-03-02T00:56:29;36.28;;;17.00;;
39518;SDS011;25200;53.394;10.414;2024-03-02T00:58:55;38.70;;;18.13;;
39518;SDS011;25200;53.394;10.414;2024-03-02T01:01:21;31.90;;;15.93;;
39518;SDS011;25200;53.394;10.414;2024-03-02T01:03:47;31.30;;;16.05;;
39518;SDS011;25200;53.394;10.414;2024-03-02T01:06:14;33.28;;;16.08;;
39518;SDS011;25200;53.394;10.414;2024-03-02T01:08:40;33.88;;;16.30;;
39518;SDS011;25200;53.394;10.414;2024-03-02T01:11:05;32.30;;;16.25;;
39518;SDS011;25200;53.394;10.414;2024-03-02T01:13:31;34.88;;;16.15;;
39518;SDS011;25200;53.394;10.414;2024-03-02T01:15:57;32.20;;;15.38;;
39518;SDS011;25200;53.394;10.414;2024-03-02T01:18:23;32.10;;;16.08;;
39518;SDS011;25200;53.394;10.414;2024-03-02T01:20:49;37.67;;;17.45;;
39518;SDS011;25200;53.394;10.414;2024-03-02T01:23:20;27.85;;;14.98;;
39518;SDS011;25200;53.394;10.414;2024-03-02T01:25:49;33.97;;;16.13;;
39518;SDS011;25200;53.394;10.414;2024-03-02T01:28:16;34.30;;;17.45;;
39518;SDS011;25200;53.394;10.414;2024-03-02T01:30:42;34.85;;;16.42;;
39518;SDS011;25200;53.394;10.414;2024-03-02T01:33:08;31.98;;;15.63;;
39518;SDS011;25200;53.394;10.414;2024-03-02T01:35:33;35.55;;;16.90;;
39518;SDS011;25200;53.394;10.414;2024-03-02T01:38:02;34.58;;;15.80;;
39518;SDS011;25200;53.394;10.414;2024-03-02T01:40:28;32.28;;;16.30;;
39518;SDS011;25200;53.394;10.414;2024-03-02T01:42:54;34.00;;;16.08;;
39518;SDS011;25200;53.394;10.414;2024-03-02T01:45:20;37.72;;;18.05;;
39518;SDS011;25200;53.394;10.414;2024-03-02T01:47:47;33.20;;;16.70;;
39518;SDS011;25200;53.394;10.414;2024-03-02T01:50:12;34.47;;;15.63;;
39518;SDS011;25200;53.394;10.414;2024-03-02T01:52:39;37.35;;;17.50;;
39518;SDS011;25200;53.394;10.414;2024-03-02T01:55:05;33.28;;;17.52;;
39518;SDS011;25200;53.394;10.414;2024-03-02T01:57:31;36.35;;;16.95;;
39518;SDS011;25200;53.394;10.414;2024-03-02T01:59:57;35.67;;;17.25;;
39518;SDS011;25200;53.394;10.414;2024-03-02T02:02:23;33.35;;;17.20;;
39518;SDS011;25200;53.394;10.414;2024-03-02T02:04:49;32.30;;;16.73;;
39518;SDS011;25200;53.394;10.414;2024-03-02T02:07:14;31.05;;;16.90;;
39518;SDS011;25200;53.394;10.414;2024-03-02T02:09:43;36.25;;;17.45;;
39518;SDS011;25200;53.394;10.414;2024-03-02T02:12:09;33.83;;;17.48;;
39518;SDS011;25200;53.394;10.414;2024-03-02T02:14:35;36.97;;;17.73;;
39518;SDS011;25200;53.394;10.414;2024-03-02T02:17:01;32.15;;;16.60;;
39518;SDS011;25200;53.394;10.414;2024-03-02T02:19:26;36.65;;;17.17;;
39518;SDS011;25200;53.394;10.414;2024-03-02T02:21:52;40.05;;;18.48;;
39518;SDS011;25200;53.394;10.414;2024-03-02T02:24:18;37.58;;;18.70;;
39518;SDS011;25200;53.394;10.414;2024-03-02T02:26:43;38.13;;;17.52;;
39518;SDS011;25200;53.394;10.414;2024-03-02T02:29:09;36.35;;;17.55;;
39518;SDS011;25200;53.394;10.414;2024-03-02T02:31:37;33.58;;;16.73;;
39518;SDS011;25200;53.394;10.414;2024-03-02T02:34:04;37.63;;;17.17;;
39518;SDS011;25200;53.394;10.414;2024-03-02T02:36:30;38.30;;;18.85;;
39518;SDS011;25200;53.394;10.414;2024-03-02T02:38:56;33.67;;;17.23;;
39518;SDS011;25200;53.394;10.414;2024-03-02T02:41:22;38.38;;;18.33;;
39518;SDS011;25200;53.394;10.414;2024-03-02T02:43:47;34.38;;;16.00;;
39518;SDS011;25200;53.394;10.414;2024-03-02T02:46:13;34.30;;;16.85;;
39518;SDS011;25200;53.394;10.414;2024-03-02T02:48:39;32.63;;;15.40;;
39518;SDS011;25200;53.394;10.414;2024-03-02T02:51:04;35.35;;;16.35;;
39518;SDS011;25200;53.394;10.414;2024-03-02T02:53:30;31.48;;;16.02;;
39518;SDS011;25200;53.394;10.414;2024-03-02T02:55:55;34.60;;;16.02;;
39518;SDS011;25200;53.394;10.414;2024-03-02T02:58:21;30.45;;;15.38;;
39518;SDS011;25200;53.394;10.414;2024-03-02T03:00:46;32.85;;;16.00;;
39518;SDS011;25200;53.394;10.414;2024-03-02T03:03:12;30.88;;;14.95;;
39518;SDS011;25200;53.394;10.414;2024-03-02T03:05:37;30.48;;;14.40;;
39518;SDS011;25200;53.394;10.414;2024-03-02T03:08:03;27.67;;;13.77;;
39518;SDS011;25200;53.394;10.414;2024-03-02T03:10:29;30.02;;;15.10;;
39518;SDS011;25200;53.394;10.414;2024-03-02T03:12:54;35.30;;;17.95;;
39518;SDS011;25200;53.394;10.414;2024-03-02T03:15:21;30.40;;;14.52;;
39518;SDS011;25200;53.394;10.414;2024-03-02T03:17:46;29.10;;;15.10;;
39518;SDS011;25200;53.394;10.414;2024-03-02T03:20:12;31.52;;;15.93;;
39518;SDS011;25200;53.394;10.414;2024-03-02T03:22:39;29.00;;;14.52;;
39518;SDS011;25200;53.394;10.414;2024-03-02T03:25:04;34.08;;;16.33;;
39518;SDS011;25200;53.394;10.414;2024-03-02T03:27:31;29.52;;;15.02;;
39518;SDS011;25200;53.394;10.414;2024-03-02T03:29:57;38.03;;;17.38;;
39518;SDS011;25200;53.394;10.414;2024-03-02T03:32:23;39.35;;;18.80;;
39518;SDS011;25200;53.394;10.414;2024-03-02T03:34:48;36.10;;;17.45;;
39518;SDS011;25200;53.394;10.414;2024-03-02T03:37:14;35.08;;;16.83;;
39518;SDS011;25200;53.394;10.414;2024-03-02T03:39:40;30.67;;;15.93;;
39518;SDS011;25200;53.394;10.414;2024-03-02T03:42:06;33.42;;;15.68;;
39518;SDS011;25200;53.394;10.414;2024-03-02T03:44:31;35.40;;;15.82;;
39518;SDS011;25200;53.394;10.414;2024-03-02T03:46:57;34.72;;;16.23;;
39518;SDS011;25200;53.394;10.414;2024-03-02T03:49:23;32.88;;;15.57;;
39518;SDS011;25200;53.394;10.414;2024-03-02T03:51:48;29.83;;;15.05;;
39518;SDS011;25200;53.394;10.414;2024-03-02T03:54:14;34.13;;;16.25;;
39518;SDS011;25200;53.394;10.414;2024-03-02T03:56:40;32.13;;;16.20;;
39518;SDS011;25200;53.394;10.414;2024-03-02T03:59:05;32.33;;;16.23;;
39518;SDS011;25200;53.394;10.414;2024-03-02T04:01:31;32.38;;;15.55;;
39518;SDS011;25200;53.394;10.414;2024-03-02T04:03:57;31.45;;;16.02;;
39518;SDS011;25200;53.394;10.414;2024-03-02T04:06:23;35.53;;;17.25;;
39518;SDS011;25200;53.394;10.414;2024-03-02T04:08:48;31.25;;;15.65;;
39518;SDS011;25200;53.394;10.414;2024-03-02T04:11:14;34.55;;;16.63;;
39518;SDS011;25200;53.394;10.414;2024-03-02T04:13:40;30.55;;;15.23;;
39518;SDS011;25200;53.394;10.414;2024-03-02T04:16:05;32.92;;;15.63;;
39518;SDS011;25200;53.394;10.414;2024-03-02T04:18:31;31.70;;;15.65;;
39518;SDS011;25200;53.394;10.414;2024-03-02T04:20:57;31.73;;;15.63;;
39518;SDS011;25200;53.394;10.414;2024-03-02T04:23:26;32.58;;;15.93;;
39518;SDS011;25200;53.394;10.414;2024-03-02T04:25:52;29.85;;;15.18;;
39518;SDS011;25200;53.394;10.414;2024-03-02T04:28:18;34.50;;;16.38;;
39518;SDS011;25200;53.394;10.414;2024-03-02T04:30:43;34.95;;;15.50;;
39518;SDS011;25200;53.394;10.414;2024-03-02T04:33:09;36.80;;;17.55;;
39518;SDS011;25200;53.394;10.414;2024-03-02T04:35:35;29.92;;;16.10;;
39518;SDS011;25200;53.394;10.414;2024-03-02T04:38:01;31.77;;;16.25;;
39518;SDS011;25200;53.394;10.414;2024-03-02T04:40:27;37.53;;;18.98;;
39518;SDS011;25200;53.394;10.414;2024-03-02T04:42:52;33.25;;;15.90;;
39518;SDS011;25200;53.394;10.414;2024-03-02T04:45:18;32.42;;;16.38;;
39518;SDS011;25200;53.394;10.414;2024-03-02T04:47:43;35.03;;;16.80;;
39518;SDS011;25200;53.394;10.414;2024-03-02T04:50:09;32.80;;;16.25;;
39518;SDS011;25200;53.394;10.414;2024-03-02T04:52:35;32.83;;;15.93;;
39518;SDS011;25200;53.394;10.414;2024-03-02T04:55:01;36.33;;;17.23;;
39518;SDS011;25200;53.394;10.414;2024-03-02T04:57:42;40.80;;;17.05;;
39518;SDS011;25200;53.394;10.414;2024-03-02T05:00:08;30.52;;;14.73;;
39518;SDS011;25200;53.394;10.414;2024-03-02T05:02:35;32.88;;;16.13;;
39518;SDS011;25200;53.394;10.414;2024-03-02T05:05:00;40.47;;;18.15;;
39518;SDS011;25200;53.394;10.414;2024-03-02T05:07:26;35.30;;;17.30;;
39518;SDS011;25200;53.394;10.414;2024-03-02T05:09:51;36.63;;;17.70;;
39518;SDS011;25200;53.394;10.414;2024-03-02T05:12:17;34.88;;;17.42;;
39518;SDS011;25200;53.394;10.414;2024-03-02T05:15:01;35.13;;;17.27;;
39518;SDS011;25200;53.394;10.414;2024-03-02T05:17:27;33.38;;;16.08;;
39518;SDS011;25200;53.394;10.414;2024-03-02T05:19:53;33.25;;;16.63;;
39518;SDS011;25200;53.394;10.414;2024-03-02T05:22:18;33.67;;;16.92;;
39518;SDS011;25200;53.394;10.414;2024-03-02T05:24:44;30.45;;;15.48;;
39518;SDS011;25200;53.394;10.414;2024-03-02T05:27:09;31.08;;;15.57;;
39518;SDS011;25200;53.394;10.414;2024-03-02T05:29:35;32.63;;;16.85;;
39518;SDS011;25200;53.394;10.414;2024-03-02T05:32:01;29.95;;;15.90;;
39518;SDS011;25200;53.394;10.414;2024-03-02T05:34:26;30.52;;;15.32;;
39518;SDS011;25200;53.394;10.414;2024-03-02T05:36:52;30.80;;;15.55;;
39518;SDS011;25200;53.394;10.414;2024-03-02T05:39:18;29.17;;;14.30;;
39518;SDS011;25200;53.394;10.414;2024-03-02T05:41:43;27.98;;;14.88;;
39518;SDS011;25200;53.394;10.414;2024-03-02T05:44:09;29.48;;;15.35;;
39518;SDS011;25200;53.394;10.414;2024-03-02T05:46:35;28.35;;;15.43;;
39518;SDS011;25200;53.394;10.414;2024-03-02T05:49:00;30.27;;;15.57;;
39518;SDS011;25200;53.394;10.414;2024-03-02T05:51:26;31.58;;;15.55;;
39518;SDS011;25200;53.394;10.414;2024-03-02T05:53:51;32.33;;;16.70;;
39518;SDS011;25200;53.394;10.414;2024-03-02T05:56:17;33.10;;;16.20;;
39518;SDS011;25200;53.394;10.414;2024-03-02T05:58:43;32.85;;;16.52;;
39518;SDS011;25200;53.394;10.414;2024-03-02T06:01:22;39.45;;;19.35;;
39518;SDS011;25200;53.394;10.414;2024-03-02T06:03:53;36.15;;;17.67;;
39518;SDS011;25200;53.394;10.414;2024-03-02T06:06:20;33.85;;;16.88;;
39518;SDS011;25200;53.394;10.414;2024-03-02T06:08:46;32.70;;;17.05;;
39518;SDS011;25200;53.394;10.414;2024-03-02T06:11:11;37.22;;;18.38;;
39518;SDS011;25200;53.394;10.414;2024-03-02T06:13:37;36.95;;;17.63;;
39518;SDS011;25200;53.394;10.414;2024-03-02T06:16:02;35.88;;;17.50;;
39518;SDS011;25200;53.394;10.414;2024-03-02T06:18:28;34.67;;;17.63;;
39518;SDS011;25200;53.394;10.414;2024-03-02T06:20:54;33.83;;;16.40;;
39518;SDS011;25200;53.394;10.414;2024-03-02T06:23:19;32.83;;;17.58;;
39518;SDS011;25200;53.394;10.414;2024-03-02T06:25:45;39.90;;;19.77;;
39518;SDS011;25200;53.394;10.414;2024-03-02T06:28:10;38.80;;;18.50;;
39518;SDS011;25200;53.394;10.414;2024-03-02T06:30:36;33.05;;;17.27;;
39518;SDS011;25200;53.394;10.414;2024-03-02T06:33:01;32.22;;;16.85;;
39518;SDS011;25200;53.394;10.414;2024-03-02T06:35:28;31.17;;;16.42;;
39518;SDS011;25200;53.394;10.414;2024-03-02T06:37:54;33.92;;;16.73;;
39518;SDS011;25200;53.394;10.414;2024-03-02T06:40:20;36.13;;;18.58;;
39518;SDS011;25200;53.394;10.414;2024-03-02T06:42:46;35.28;;;16.98;;
39518;SDS011;25200;53.394;10.414;2024-03-02T06:45:12;41.22;;;19.13;;
39518;SDS011;25200;53.394;10.414;2024-03-02T06:47:38;37.70;;;18.60;;
39518;SDS011;25200;53.394;10.414;2024-03-02T06:50:03;37.88;;;18.70;;
39518;SDS011;25200;53.394;10.414;2024-03-02T06:52:29;37.47;;;19.23;;
39518;SDS011;25200;53.394;10.414;2024-03-02T06:54:55;36.53;;;17.77;;
39518;SDS011;25200;53.394;10.414;2024-03-02T06:57:20;38.58;;;19.27;;
39518;SDS011;25200;53.394;10.414;2024-03-02T06:59:46;38.45;;;18.08;;
39518;SDS011;25200;53.394;10.414;2024-03-02T07:02:15;37.35;;;18.98;;
39518;SDS011;25200;53.394;10.414;2024-03-02T07:04:40;38.58;;;18.67;;
39518;SDS011;25200;53.394;10.414;2024-03-02T07:07:06;36.95;;;18.88;;
39518;SDS011;25200;53.394;10.414;2024-03-02T07:09:31;34.47;;;17.42;;
39518;SDS011;25200;53.394;10.414;2024-03-02T07:11:57;36.38;;;17.73;;
39518;SDS011;25200;53.394;10.414;2024-03-02T07:14:23;38.55;;;19.77;;
39518;SDS011;25200;53.394;10.414;2024-03-02T07:17:08;35.92;;;18.15;;
39518;SDS011;25200;53.394;10.414;2024-03-02T07:19:35;37.28;;;18.70;;
39518;SDS011;25200;53.394;10.414;2024-03-02T07:22:01;40.00;;;18.50;;
39518;SDS011;25200;53.394;10.414;2024-03-02T07:24:30;41.38;;;19.52;;
39518;SDS011;25200;53.394;10.414;2024-03-02T07:26:56;39.95;;;19.90;;
39518;SDS011;25200;53.394;10.414;2024-03-02T07:29:21;39.75;;;19.20;;
39518;SDS011;25200;53.394;10.414;2024-03-02T07:31:47;40.38;;;19.50;;
39518;SDS011;25200;53.394;10.414;2024-03-02T07:34:13;38.72;;;20.02;;
39518;SDS011;25200;53.394;10.414;2024-03-02T07:36:38;36.88;;;19.42;;
39518;SDS011;25200;53.394;10.414;2024-03-02T07:39:04;39.55;;;18.52;;
39518;SDS011;25200;53.394;10.414;2024-03-02T07:41:29;38.28;;;18.63;;
39518;SDS011;25200;53.394;10.414;2024-03-02T07:43:56;37.65;;;19.45;;
39518;SDS011;25200;53.394;10.414;2024-03-02T07:46:21;46.78;;;19.75;;
39518;SDS011;25200;53.394;10.414;2024-03-02T07:48:47;37.17;;;19.13;;
39518;SDS011;25200;53.394;10.414;2024-03-02T07:51:13;38.65;;;19.17;;
39518;SDS011;25200;53.394;10.414;2024-03-02T07:53:39;36.85;;;19.13;;
39518;SDS011;25200;53.394;10.414;2024-03-02T07:56:05;36.42;;;17.58;;
39518;SDS011;25200;53.394;10.414;2024-03-02T07:58:31;38.65;;;18.77;;
39518;SDS011;25200;53.394;10.414;2024-03-02T08:00:58;38.63;;;18.77;;
39518;SDS011;25200;53.394;10.414;2024-03-02T08:03:26;39.55;;;18.02;;
39518;SDS011;25200;53.394;10.414;2024-03-02T08:05:52;34.47;;;18.20;;
39518;SDS011;25200;53.394;10.414;2024-03-02T08:08:17;40.22;;;18.88;;
39518;SDS011;25200;53.394;10.414;2024-03-02T08:10:43;37.63;;;18.42;;
39518;SDS011;25200;53.394;10.414;2024-03-02T08:13:09;37.67;;;18.70;;
39518;SDS011;25200;53.394;10.414;2024-03-02T08:15:34;34.35;;;17.40;;
39518;SDS011;25200;53.394;10.414;2024-03-02T08:18:00;38.50;;;18.42;;
39518;SDS011;25200;53.394;10.414;2024-03-02T08:20:26;34.47;;;18.60;;
39518;SDS011;25200;53.394;10.414;2024-03-02T08:22:51;36.35;;;18.75;;
39518;SDS011;25200;53.394;10.414;2024-03-02T08:25:20;38.47;;;18.83;;
39518;SDS011;25200;53.394;10.414;2024-03-02T08:27:46;37.88;;;18.83;;
39518;SDS011;25200;53.394;10.414;2024-03-02T08:30:11;38.08;;;19.25;;
39518;SDS011;25200;53.394;10.414;2024-03-02T08:32:37;32.35;;;17.92;;
39518;SDS011;25200;53.394;10.414;2024-03-02T08:35:03;34.63;;;17.60;;
39518;SDS011;25200;53.394;10.414;2024-03-02T08:37:30;35.95;;;18.77;;
39518;SDS011;25200;53.394;10.414;2024-03-02T08:39:55;32.33;;;17.40;;
39518;SDS011;25200;53.394;10.414;2024-03-02T08:42:21;38.38;;;18.60;;
39518;SDS011;25200;53.394;10.414;2024-03-02T08:44:47;39.22;;;19.13;;
39518;SDS011;25200;53.394;10.414;2024-03-02T08:47:13;39.78;;;19.60;;
39518;SDS011;25200;53.394;10.414;2024-03-02T08:49:39;34.67;;;17.73;;
39518;SDS011;25200;53.394;10.414;2024-03-02T08:52:04;41.95;;;19.40;;
39518;SDS011;25200;53.394;10.414;2024-03-02T08:54:30;38.85;;;19.17;;
39518;SDS011;25200;53.394;10.414;2024-03-02T08:56:56;37.67;;;20.13;;
39518;SDS011;25200;53.394;10.414;2024-03-02T08:59:22;38.38;;;19.10;;
39518;SDS011;25200;53.394;10.414;2024-03-02T09:01:47;35.90;;;18.23;;
39518;SDS011;25200;53.394;10.414;2024-03-02T09:04:13;36.65;;;19.13;;
39518;SDS011;25200;53.394;10.414;2024-03-02T09:06:39;38.85;;;18.83;;
39518;SDS011;25200;53.394;10.414;2024-03-02T09:09:04;42.08;;;20.08;;
39518;SDS011;25200;53.394;10.414;2024-03-02T09:11:30;37.60;;;18.52;;
39518;SDS011;25200;53.394;10.414;2024-03-02T09:13:55;39.90;;;18.63;;
39518;SDS011;25200;53.394;10.414;2024-03-02T09:16:22;37.05;;;18.42;;
39518;SDS011;25200;53.394;10.414;2024-03-02T09:18:49;39.67;;;17.58;;
39518;SDS011;25200;53.394;10.414;2024-03-02T09:21:14;34.42;;;17.52;;
39518;SDS011;25200;53.394;10.414;2024-03-02T09:23:40;32.10;;;17.58;;
39518;SDS011;25200;53.394;10.414;2024-03-02T09:26:06;40.28;;;19.25;;
39518;SDS011;25200;53.394;10.414;2024-03-02T09:28:31;36.63;;;18.15;;
39518;SDS011;25200;53.394;10.414;2024-03-02T09:30:57;38.03;;;18.48;;
39518;SDS011;25200;53.394;10.414;2024-03-02T09:33:22;35.20;;;17.58;;
39518;SDS011;25200;53.394;10.414;2024-03-02T09:35:48;34.72;;;18.70;;
39518;SDS011;25200;53.394;10.414;2024-03-02T09:38:14;36.22;;;17.27;;
39518;SDS011;25200;53.394;10.414;2024-03-02T09:40:40;30.25;;;16.20;;
39518;SDS011;25200;53.394;10.414;2024-03-02T09:43:07;31.23;;;16.67;;
39518;SDS011;25200;53.394;10.414;2024-03-02T09:45:32;34.15;;;17.65;;
39518;SDS011;25200;53.394;10.414;2024-03-02T09:47:59;36.03;;;17.55;;
39518;SDS011;25200;53.394;10.414;2024-03-02T09:50:25;36.53;;;17.25;;
39518;SDS011;25200;53.394;10.414;2024-03-02T09:52:50;33.42;;;17.20;;
39518;SDS011;25200;53.394;10.414;2024-03-02T09:55:18;32.13;;;16.75;;
39518;SDS011;25200;53.394;10.414;2024-03-02T09:57:45;32.33;;;17.13;;
39518;SDS011;25200;53.394;10.414;2024-03-02T10:00:11;30.70;;;17.17;;
39518;SDS011;25200;53.394;10.414;2024-03-02T10:02:40;28.95;;;16.17;;
39518;SDS011;25200;53.394;10.414;2024-03-02T10:05:09;30.33;;;15.30;;
39518;SDS011;25200;53.394;10.414;2024-03-02T10:07:35;28.67;;;15.95;;
39518;SDS011;25200;53.394;10.414;2024-03-02T10:10:12;29.00;;;16.17;;
39518;SDS011;25200;53.394;10.414;2024-03-02T10:12:39;24.33;;;13.52;;
39518;SDS011;25200;53.394;10.414;2024-03-02T10:15:05;26.38;;;13.25;;
39518;SDS011;25200;53.394;10.414;2024-03-02T10:17:31;26.27;;;14.88;;
39518;SDS011;25200;53.394;10.414;2024-03-02T10:19:57;24.20;;;14.13;;
39518;SDS011;25200;53.394;10.414;2024-03-02T10:22:22;23.38;;;12.77;;
39518;SDS011;25200;53.394;10.414;2024-03-02T10:24:48;25.00;;;12.88;;
39518;SDS011;25200;53.394;10.414;2024-03-02T10:27:18;19.27;;;10.85;;
39518;SDS011;25200;53.394;10.414;2024-03-02T10:29:48;17.67;;;10.00;;
39518;SDS011;25200;53.394;10.414;2024-03-02T10:32:15;20.15;;;10.55;;
39518;SDS011;25200;53.394;10.414;2024-03-02T10:34:41;16.75;;;10.00;;
39518;SDS011;25200;53.394;10.414;2024-03-02T10:37:10;19.80;;;9.85;;
39518;SDS011;25200;53.394;10.414;2024-03-02T10:39:36;17.83;;;9.57;;
39518;SDS011;25200;53.394;10.414;2024-03-02T10:42:04;18.70;;;10.38;;
39518;SDS011;25200;53.394;10.414;2024-03-02T10:44:31;18.35;;;10.20;;
39518;SDS011;25200;53.394;10.414;2024-03-02T10:47:01;16.90;;;9.55;;
39518;SDS011;25200;53.394;10.414;2024-03-02T10:49:29;15.48;;;8.00;;
39518;SDS011;25200;53.394;10.414;2024-03-02T10:51:57;15.25;;;8.45;;
39518;SDS011;25200;53.394;10.414;2024-03-02T10:54:26;15.95;;;9.20;;
39518;SDS011;25200;53.394;10.414;2024-03-02T10:56:53;14.50;;;8.05;;
39518;SDS011;25200;53.394;10.414;2024-03-02T11:01:49;16.60;;;8.90;;
39518;SDS011;25200;53.394;10.414;2024-03-02T11:04:16;16.35;;;8.13;;
39518;SDS011;25200;53.394;10.414;2024-03-02T11:06:48;16.30;;;8.80;;
39518;SDS011;25200;53.394;10.414;2024-03-02T11:09:14;13.93;;;7.75;;
39518;SDS011;25200;53.394;10.414;2024-03-02T11:11:44;14.07;;;8.38;;
39518;SDS011;25200;53.394;10.414;2024-03-02T11:14:14;14.95;;;8.30;;
39518;SDS011;25200;53.394;10.414;2024-03-02T11:16:42;15.15;;;8.38;;
39518;SDS011;25200;53.394;10.414;2024-03-02T11:19:10;14.38;;;8.30;;
39518;SDS011;25200;53.394;10.414;2024-03-02T11:21:37;12.88;;;7.28;;
39518;SDS011;25200;53.394;10.414;2024-03-02T11:27:02;14.90;;;7.55;;
39518;SDS011;25200;53.394;10.414;2024-03-02T11:32:21;13.55;;;7.40;;
39518;SDS011;25200;53.394;10.414;2024-03-02T11:34:53;15.65;;;7.97;;
39518;SDS011;25200;53.394;10.414;2024-03-02T11:37:19;14.32;;;7.85;;
39518;SDS011;25200;53.394;10.414;2024-03-02T11:39:45;12.10;;;7.38;;
39518;SDS011;25200;53.394;10.414;2024-03-02T11:42:15;14.00;;;7.18;;
39518;SDS011;25200;53.394;10.414;2024-03-02T11:44:42;15.50;;;7.78;;
39518;SDS011;25200;53.394;10.414;2024-03-02T11:47:14;15.80;;;8.10;;
39518;SDS011;25200;53.394;10.414;2024-03-02T11:49:41;20.27;;;9.65;;
39518;SDS011;25200;53.394;10.414;2024-03-02T11:52:10;13.23;;;7.82;;
39518;SDS011;25200;53.394;10.414;2024-03-02T11:54:37;12.85;;;7.07;;
39518;SDS011;25200;53.394;10.414;2024-03-02T11:57:11;14.02;;;6.50;;
39518;SDS011;25200;53.394;10.414;2024-03-02T11:59:39;12.63;;;7.53;;
39518;SDS011;25200;53.394;10.414;2024-03-02T12:02:05;14.00;;;7.72;;
39518;SDS011;25200;53.394;10.414;2024-03-02T12:04:31;13.65;;;7.30;;
39518;SDS011;25200;53.394;10.414;2024-03-02T12:07:00;13.48;;;6.68;;
39518;SDS011;25200;53.394;10.414;2024-03-02T12:09:26;12.65;;;7.15;;
39518;SDS011;25200;53.394;10.414;2024-03-02T12:12:05;13.98;;;7.35;;
39518;SDS011;25200;53.394;10.414;2024-03-02T12:14:32;15.23;;;7.38;;
39518;SDS011;25200;53.394;10.414;2024-03-02T12:16:58;20.73;;;11.45;;
39518;SDS011;25200;53.394;10.414;2024-03-02T12:19:27;23.30;;;13.50;;
39518;SDS011;25200;53.394;10.414;2024-03-02T12:21:54;19.77;;;10.40;;
39518;SDS011;25200;53.394;10.414;2024-03-02T12:24:27;14.88;;;7.90;;
39518;SDS011;25200;53.394;10.414;2024-03-02T12:26:54;13.85;;;7.18;;
39518;SDS011;25200;53.394;10.414;2024-03-02T12:29:20;12.07;;;7.18;;
39518;SDS011;25200;53.394;10.414;2024-03-02T12:31:50;17.98;;;8.00;;
39518;SDS011;25200;53.394;10.414;2024-03-02T12:34:17;14.68;;;7.22;;
39518;SDS011;25200;53.394;10.414;2024-03-02T12:36:43;13.55;;;7.72;;
39518;SDS011;25200;53.394;10.414;2024-03-02T12:39:12;14.00;;;8.00;;
39518;SDS011;25200;53.394;10.414;2024-03-02T12:41:38;16.02;;;8.30;;
39518;SDS011;25200;53.394;10.414;2024-03-02T12:44:04;13.70;;;7.78;;
39518;SDS011;25200;53.394;10.414;2024-03-02T12:46:33;12.93;;;7.30;;
39518;SDS011;25200;53.394;10.414;2024-03-02T12:49:22;13.63;;;7.70;;
39518;SDS011;25200;53.394;10.414;2024-03-02T12:51:47;14.25;;;7.22;;
39518;SDS011;25200;53.394;10.414;2024-03-02T12:54:17;14.80;;;7.80;;
39518;SDS011;25200;53.394;10.414;2024-03-02T12:56:43;15.73;;;7.75;;
39518;SDS011;25200;53.394;10.414;2024-03-02T12:59:18;12.13;;;6.85;;
39518;SDS011;25200;53.394;10.414;2024-03-02T13:01:50;11.60;;;7.15;;
39518;SDS011;25200;53.394;10.414;2024-03-02T13:04:26;14.35;;;7.60;;
39518;SDS011;25200;53.394;10.414;2024-03-02T13:06:53;14.60;;;7.38;;
39518;SDS011;25200;53.394;10.414;2024-03-02T13:09:22;13.38;;;7.32;;
39518;SDS011;25200;53.394;10.414;2024-03-02T13:11:48;13.57;;;7.93;;
39518;SDS011;25200;53.394;10.414;2024-03-02T13:14:14;16.83;;;7.63;;
39518;SDS011;25200;53.394;10.414;2024-03-02T13:16:40;14.07;;;7.78;;
39518;SDS011;25200;53.394;10.414;2024-03-02T13:19:07;13.45;;;6.95;;
39518;SDS011;25200;53.394;10.414;2024-03-02T13:21:33;15.15;;;8.52;;
39518;SDS011;25200;53.394;10.414;2024-03-02T13:23:59;14.07;;;8.13;;
39518;SDS011;25200;53.394;10.414;2024-03-02T13:26:25;13.07;;;7.88;;
39518;SDS011;25200;53.394;10.414;2024-03-02T13:28:51;15.15;;;8.20;;
39518;SDS011;25200;53.394;10.414;2024-03-02T13:31:16;15.52;;;7.97;;
39518;SDS011;25200;53.394;10.414;2024-03-02T13:33:42;16.30;;;8.85;;
39518;SDS011;25200;53.394;10.414;2024-03-02T13:36:08;14.60;;;7.82;;
39518;SDS011;25200;53.394;10.414;2024-03-02T13:38:33;14.20;;;8.02;;
39518;SDS011;25200;53.394;10.414;2024-03-02T13:40:59;13.25;;;8.07;;
39518;SDS011;25200;53.394;10.414;2024-03-02T13:43:26;14.25;;;8.55;;
39518;SDS011;25200;53.394;10.414;2024-03-02T13:45:51;17.10;;;9.60;;
39518;SDS011;25200;53.394;10.414;2024-03-02T13:48:18;15.15;;;8.43;;
39518;SDS011;25200;53.394;10.414;2024-03-02T13:50:44;15.10;;;8.73;;
39518;SDS011;25200;53.394;10.414;2024-03-02T13:53:11;14.60;;;8.40;;
39518;SDS011;25200;53.394;10.414;2024-03-02T13:55:37;19.92;;;8.90;;
39518;SDS011;25200;53.394;10.414;2024-03-02T13:58:03;15.18;;;8.63;;
39518;SDS011;25200;53.394;10.414;2024-03-02T14:00:29;16.67;;;8.55;;
39518;SDS011;25200;53.394;10.414;2024-03-02T14:02:55;14.40;;;8.27;;
39518;SDS011;25200;53.394;10.414;2024-03-02T14:05:21;13.82;;;8.00;;
39518;SDS011;25200;53.394;10.414;2024-03-02T14:07:46;13.52;;;7.22;;
39518;SDS011;25200;53.394;10.414;2024-03-02T14:10:12;14.50;;;7.53;;
39518;SDS011;25200;53.394;10.414;2024-03-02T14:12:39;13.20;;;7.70;;
39518;SDS011;25200;53.394;10.414;2024-03-02T14:15:06;15.02;;;7.68;;
39518;SDS011;25200;53.394;10.414;2024-03-02T14:17:32;17.42;;;10.20;;